sensor_id;sensor_type;location;lat;lon;timestamp;pressure;altitude;pressure_sealevel;temperature;humidity
46394;BME280;32099;53.588;10.176;2022-08-18T00:00:40;100756.97;;;19.91;78.46
46394;BME280;32099;53.588;10.176;2022-08-18T00:03:07;100758.19;;;19.95;77.63
46394;BME280;32099;53.588;10.176;2022-08-18T00:05:35;100760.19;;;20.00;78.50
46394;BME280;32099;53.588;10.176;2022-08-18T00:08:00;100752.84;;;20.06;78.62
46394;BME280;32099;53.588;10.176;2022-08-18T00:10:25;100753.66;;;20.06;78.76
46394;BME280;32099;53.588;10.176;2022-08-18T00:12:51;100749.56;;;20.09;78.87
46394;BME280;32099;53.588;10.176;2022-08-18T00:15:17;100761.50;;;20.09;78.28
46394;BME280;32099;53.588;10.176;2022-08-18T00:17:42;100757.97;;;20.14;78.37
46394;BME280;32099;53.588;10.176;2022-08-18T00:20:10;100757.22;;;20.18;78.58
46394;BME280;32099;53.588;10.176;2022-08-18T00:22:35;100749.53;;;20.21;78.12
46394;BME280;32099;53.588;10.176;2022-08-18T00:25:01;100759.25;;;20.23;78.33
46394;BME280;32099;53.588;10.176;2022-08-18T00:27:27;100757.09;;;20.25;78.46
46394;BME280;32099;53.588;10.176;2022-08-18T00:29:53;100757.44;;;20.29;78.30
46394;BME280;32099;53.588;10.176;2022-08-18T00:32:19;100754.44;;;20.30;78.59
46394;BME280;32099;53.588;10.176;2022-08-18T00:34:45;100755.00;;;20.32;78.79
46394;BME280;32099;53.588;10.176;2022-08-18T00:37:10;100749.72;;;20.31;78.59
46394;BME280;32099;53.588;10.176;2022-08-18T00:39:35;100745.88;;;20.32;78.88
46394;BME280;32099;53.588;10.176;2022-08-18T00:42:18;100743.91;;;20.32;78.87
46394;BME280;32099;53.588;10.176;2022-08-18T00:44:43;100743.69;;;20.34;79.27
46394;BME280;32099;53.588;10.176;2022-08-18T00:47:09;100740.06;;;20.33;78.83
46394;BME280;32099;53.588;10.176;2022-08-18T00:49:35;100738.38;;;20.32;78.84
46394;BME280;32099;53.588;10.176;2022-08-18T00:52:01;100747.78;;;20.31;78.93
46394;BME280;32099;53.588;10.176;2022-08-18T00:54:28;100737.22;;;20.28;79.50
46394;BME280;32099;53.588;10.176;2022-08-18T00:56:56;100740.22;;;20.27;78.82
46394;BME280;32099;53.588;10.176;2022-08-18T00:59:23;100735.53;;;20.27;79.36
46394;BME280;32099;53.588;10.176;2022-08-18T01:01:50;100735.53;;;20.27;79.67
46394;BME280;32099;53.588;10.176;2022-08-18T01:04:18;100725.53;;;20.26;78.94
46394;BME280;32099;53.588;10.176;2022-08-18T01:06:46;100728.91;;;20.28;78.45
46394;BME280;32099;53.588;10.176;2022-08-18T01:09:12;100724.19;;;20.29;78.33
46394;BME280;32099;53.588;10.176;2022-08-18T01:11:38;100719.16;;;20.26;78.46
46394;BME280;32099;53.588;10.176;2022-08-18T01:14:07;100727.47;;;20.26;78.97
46394;BME280;32099;53.588;10.176;2022-08-18T01:16:32;100726.91;;;20.24;77.99
46394;BME280;32099;53.588;10.176;2022-08-18T01:19:16;100724.13;;;20.24;78.39
46394;BME280;32099;53.588;10.176;2022-08-18T01:22:04;100733.50;;;20.23;78.78
46394;BME280;32099;53.588;10.176;2022-08-18T01:24:32;100728.81;;;20.23;78.12
46394;BME280;32099;53.588;10.176;2022-08-18T01:27:18;100732.31;;;20.18;78.00
46394;BME280;32099;53.588;10.176;2022-08-18T01:29:47;100727.59;;;20.19;78.26
46394;BME280;32099;53.588;10.176;2022-08-18T01:32:16;100722.59;;;20.16;78.45
46394;BME280;32099;53.588;10.176;2022-08-18T01:34:44;100717.53;;;20.13;78.32
46394;BME280;32099;53.588;10.176;2022-08-18T01:37:11;100722.25;;;20.12;78.25
46394;BME280;32099;53.588;10.176;2022-08-18T01:39:36;100724.16;;;20.12;77.94
46394;BME280;32099;53.588;10.176;2022-08-18T01:42:02;100727.78;;;20.12;77.69
46394;BME280;32099;53.588;10.176;2022-08-18T01:44:28;100725.84;;;20.13;77.73
46394;BME280;32099;53.588;10.176;2022-08-18T01:46:53;100725.03;;;20.12;78.11
46394;BME280;32099;53.588;10.176;2022-08-18T01:49:20;100724.16;;;20.12;77.89
46394;BME280;32099;53.588;10.176;2022-08-18T01:51:45;100722.75;;;20.09;77.56
46394;BME280;32099;53.588;10.176;2022-08-18T01:54:12;100734.03;;;20.08;78.37
46394;BME280;32099;53.588;10.176;2022-08-18T01:56:37;100737.06;;;20.06;78.03
46394;BME280;32099;53.588;10.176;2022-08-18T01:59:02;100737.31;;;20.04;78.41
46394;BME280;32099;53.588;10.176;2022-08-18T02:01:27;100729.03;;;20.04;77.25
46394;BME280;32099;53.588;10.176;2022-08-18T02:03:53;100720.13;;;20.02;77.08
46394;BME280;32099;53.588;10.176;2022-08-18T02:06:20;100723.97;;;20.01;76.93
46394;BME280;32099;53.588;10.176;2022-08-18T02:08:45;100729.75;;;20.00;77.40
46394;BME280;32099;53.588;10.176;2022-08-18T02:11:11;100723.84;;;19.96;78.00
46394;BME280;32099;53.588;10.176;2022-08-18T02:13:36;100726.28;;;19.93;77.21
46394;BME280;32099;53.588;10.176;2022-08-18T02:16:01;100722.56;;;19.87;77.37
46394;BME280;32099;53.588;10.176;2022-08-18T02:18:29;100720.88;;;19.86;77.75
46394;BME280;32099;53.588;10.176;2022-08-18T02:20:55;100730.25;;;19.85;78.05
46394;BME280;32099;53.588;10.176;2022-08-18T02:23:20;100732.19;;;19.84;78.06
46394;BME280;32099;53.588;10.176;2022-08-18T02:25:46;100736.63;;;19.85;79.34
46394;BME280;32099;53.588;10.176;2022-08-18T02:28:11;100721.59;;;19.81;78.52
46394;BME280;32099;53.588;10.176;2022-08-18T02:30:36;100732.06;;;19.79;78.44
46394;BME280;32099;53.588;10.176;2022-08-18T02:33:03;100731.22;;;19.79;79.42
46394;BME280;32099;53.588;10.176;2022-08-18T02:35:28;100729.81;;;19.76;78.62
46394;BME280;32099;53.588;10.176;2022-08-18T02:37:57;100726.44;;;19.74;79.34
46394;BME280;32099;53.588;10.176;2022-08-18T02:40:22;100723.66;;;19.74;78.83
46394;BME280;32099;53.588;10.176;2022-08-18T02:42:47;100718.13;;;19.74;78.35
46394;BME280;32099;53.588;10.176;2022-08-18T02:45:12;100717.88;;;19.76;78.12
46394;BME280;32099;53.588;10.176;2022-08-18T02:47:38;100714.28;;;19.75;78.14
46394;BME280;32099;53.588;10.176;2022-08-18T02:50:03;100718.41;;;19.72;77.85
46394;BME280;32099;53.588;10.176;2022-08-18T02:52:29;100720.56;;;19.70;78.07
46394;BME280;32099;53.588;10.176;2022-08-18T02:55:00;100719.97;;;19.68;78.28
46394;BME280;32099;53.588;10.176;2022-08-18T02:57:28;100721.31;;;19.66;77.79
46394;BME280;32099;53.588;10.176;2022-08-18T02:59:54;100720.69;;;19.64;77.33
46394;BME280;32099;53.588;10.176;2022-08-18T03:02:20;100724.81;;;19.61;78.08
46394;BME280;32099;53.588;10.176;2022-08-18T03:04:46;100720.84;;;19.57;77.99
46394;BME280;32099;53.588;10.176;2022-08-18T03:07:12;100726.63;;;19.55;77.79
46394;BME280;32099;53.588;10.176;2022-08-18T03:09:38;100717.72;;;19.53;77.47
46394;BME280;32099;53.588;10.176;2022-08-18T03:12:04;100722.91;;;19.50;77.36
46394;BME280;32099;53.588;10.176;2022-08-18T03:14:31;100715.69;;;19.49;77.77
46394;BME280;32099;53.588;10.176;2022-08-18T03:16:56;100727.22;;;19.46;77.60
46394;BME280;32099;53.588;10.176;2022-08-18T03:19:23;100724.72;;;19.44;77.80
46394;BME280;32099;53.588;10.176;2022-08-18T03:21:48;100719.66;;;19.41;77.50
46394;BME280;32099;53.588;10.176;2022-08-18T03:24:13;100724.34;;;19.40;78.12
46394;BME280;32099;53.588;10.176;2022-08-18T03:26:40;100727.81;;;19.36;79.06
46394;BME280;32099;53.588;10.176;2022-08-18T03:29:07;100723.63;;;19.33;78.77
46394;BME280;32099;53.588;10.176;2022-08-18T03:31:33;100729.41;;;19.32;78.51
46394;BME280;32099;53.588;10.176;2022-08-18T03:34:00;100728.31;;;19.33;78.51
46394;BME280;32099;53.588;10.176;2022-08-18T03:36:26;100726.66;;;19.32;78.25
46394;BME280;32099;53.588;10.176;2022-08-18T03:38:52;100735.16;;;19.30;78.38
46394;BME280;32099;53.588;10.176;2022-08-18T03:41:19;100734.56;;;19.28;79.04
46394;BME280;32099;53.588;10.176;2022-08-18T03:43:46;100730.13;;;19.27;78.15
46394;BME280;32099;53.588;10.176;2022-08-18T03:46:12;100733.13;;;19.25;78.02
46394;BME280;32099;53.588;10.176;2022-08-18T03:48:39;100730.63;;;19.24;78.38
46394;BME280;32099;53.588;10.176;2022-08-18T03:53:30;100735.19;;;19.18;78.45
46394;BME280;32099;53.588;10.176;2022-08-18T03:55:58;100720.75;;;19.16;78.70
46394;BME280;32099;53.588;10.176;2022-08-18T03:58:23;100735.91;;;19.14;78.66
46394;BME280;32099;53.588;10.176;2022-08-18T04:00:49;100748.06;;;19.13;79.07
46394;BME280;32099;53.588;10.176;2022-08-18T04:03:14;100746.59;;;19.10;78.91
46394;BME280;32099;53.588;10.176;2022-08-18T04:05:39;100751.53;;;19.08;79.54
46394;BME280;32099;53.588;10.176;2022-08-18T04:08:04;100754.31;;;19.08;79.18
46394;BME280;32099;53.588;10.176;2022-08-18T04:10:31;100751.75;;;19.06;79.44
46394;BME280;32099;53.588;10.176;2022-08-18T04:12:56;100751.75;;;19.06;79.42
46394;BME280;32099;53.588;10.176;2022-08-18T04:15:21;100759.44;;;19.04;79.39
46394;BME280;32099;53.588;10.176;2022-08-18T04:17:47;100764.97;;;19.04;78.98
46394;BME280;32099;53.588;10.176;2022-08-18T04:20:12;100763.06;;;19.05;79.09
46394;BME280;32099;53.588;10.176;2022-08-18T04:22:37;100760.53;;;19.03;78.80
46394;BME280;32099;53.588;10.176;2022-08-18T04:25:04;100749.50;;;19.03;78.37
46394;BME280;32099;53.588;10.176;2022-08-18T04:27:29;100758.34;;;19.05;78.20
46394;BME280;32099;53.588;10.176;2022-08-18T04:29:54;100758.97;;;19.07;78.99
46394;BME280;32099;53.588;10.176;2022-08-18T04:32:22;100758.13;;;19.07;79.11
46394;BME280;32099;53.588;10.176;2022-08-18T04:34:48;100753.22;;;19.09;79.34
46394;BME280;32099;53.588;10.176;2022-08-18T04:37:13;100745.50;;;19.11;79.32
46394;BME280;32099;53.588;10.176;2022-08-18T04:39:39;100745.03;;;19.14;79.59
46394;BME280;32099;53.588;10.176;2022-08-18T04:42:04;100752.00;;;19.17;79.39
46394;BME280;32099;53.588;10.176;2022-08-18T04:44:29;100754.03;;;19.21;79.26
46394;BME280;32099;53.588;10.176;2022-08-18T04:46:55;100762.47;;;19.26;78.55
46394;BME280;32099;53.588;10.176;2022-08-18T04:49:22;100755.38;;;19.31;79.29
46394;BME280;32099;53.588;10.176;2022-08-18T04:51:49;100751.28;;;19.33;79.65
46394;BME280;32099;53.588;10.176;2022-08-18T04:54:35;100745.84;;;19.38;78.80
46394;BME280;32099;53.588;10.176;2022-08-18T04:57:06;100751.50;;;19.43;79.29
46394;BME280;32099;53.588;10.176;2022-08-18T04:59:31;100747.19;;;19.48;79.18
46394;BME280;32099;53.588;10.176;2022-08-18T05:01:56;100747.53;;;19.51;79.95
46394;BME280;32099;53.588;10.176;2022-08-18T05:04:24;100753.41;;;19.55;79.83
46394;BME280;32099;53.588;10.176;2022-08-18T05:06:52;100749.91;;;19.60;79.05
46394;BME280;32099;53.588;10.176;2022-08-18T05:09:17;100750.25;;;19.63;78.98
46394;BME280;32099;53.588;10.176;2022-08-18T05:11:42;100745.94;;;19.67;78.69
46394;BME280;32099;53.588;10.176;2022-08-18T05:14:08;100750.13;;;19.70;79.14
46394;BME280;32099;53.588;10.176;2022-08-18T05:16:33;100756.00;;;19.73;78.93
46394;BME280;32099;53.588;10.176;2022-08-18T05:19:09;100757.22;;;19.78;79.21
46394;BME280;32099;53.588;10.176;2022-08-18T05:21:36;100754.56;;;19.83;79.14
46394;BME280;32099;53.588;10.176;2022-08-18T05:24:01;100764.94;;;19.87;79.12
46394;BME280;32099;53.588;10.176;2022-08-18T05:26:27;100760.56;;;19.92;78.96
46394;BME280;32099;53.588;10.176;2022-08-18T05:28:52;100765.38;;;19.96;79.31
46394;BME280;32099;53.588;10.176;2022-08-18T05:31:18;100766.81;;;19.99;79.36
46394;BME280;32099;53.588;10.176;2022-08-18T05:33:44;100766.69;;;20.06;79.44
46394;BME280;32099;53.588;10.176;2022-08-18T05:41:30;100759.50;;;20.22;78.65
46394;BME280;32099;53.588;10.176;2022-08-18T05:43:57;100764.91;;;20.28;78.61
46394;BME280;32099;53.588;10.176;2022-08-18T05:46:26;100763.91;;;20.34;78.69
46394;BME280;32099;53.588;10.176;2022-08-18T05:48:56;100769.28;;;20.41;78.23
46394;BME280;32099;53.588;10.176;2022-08-18T05:51:24;100762.16;;;20.45;78.71
46394;BME280;32099;53.588;10.176;2022-08-18T05:53:50;100756.38;;;20.47;77.96
46394;BME280;32099;53.588;10.176;2022-08-18T05:56:35;100760.56;;;20.49;78.63
46394;BME280;32099;53.588;10.176;2022-08-18T05:59:11;100754.53;;;20.53;78.93
46394;BME280;32099;53.588;10.176;2022-08-18T06:01:39;100755.13;;;20.55;78.71
46394;BME280;32099;53.588;10.176;2022-08-18T06:04:08;100759.31;;;20.57;78.56
46394;BME280;32099;53.588;10.176;2022-08-18T06:06:39;100752.44;;;20.60;78.04
46394;BME280;32099;53.588;10.176;2022-08-18T06:11:37;100762.44;;;20.61;78.62
46394;BME280;32099;53.588;10.176;2022-08-18T06:14:02;100761.94;;;20.64;78.41
46394;BME280;32099;53.588;10.176;2022-08-18T06:19:24;100777.56;;;20.70;78.93
46394;BME280;32099;53.588;10.176;2022-08-18T06:29:45;100778.28;;;20.77;78.58
46394;BME280;32099;53.588;10.176;2022-08-18T06:34:50;100772.56;;;20.84;79.28
46394;BME280;32099;53.588;10.176;2022-08-18T06:37:23;100787.19;;;20.96;78.63
46394;BME280;32099;53.588;10.176;2022-08-18T06:39:52;100788.09;;;21.02;78.80
46394;BME280;32099;53.588;10.176;2022-08-18T06:42:21;100782.03;;;21.05;78.07
46394;BME280;32099;53.588;10.176;2022-08-18T06:44:51;100781.53;;;21.08;78.33
46394;BME280;32099;53.588;10.176;2022-08-18T06:50:06;100786.31;;;21.13;78.89
46394;BME280;32099;53.588;10.176;2022-08-18T06:52:33;100793.66;;;21.19;79.36
46394;BME280;32099;53.588;10.176;2022-08-18T06:55:03;100794.06;;;21.28;78.77
46394;BME280;32099;53.588;10.176;2022-08-18T06:59:59;100799.31;;;21.47;78.55
46394;BME280;32099;53.588;10.176;2022-08-18T07:02:37;100797.47;;;21.52;78.77
46394;BME280;32099;53.588;10.176;2022-08-18T07:05:05;100803.06;;;21.57;78.84
46394;BME280;32099;53.588;10.176;2022-08-18T07:07:33;100803.91;;;21.58;77.86
46394;BME280;32099;53.588;10.176;2022-08-18T07:09:59;100806.28;;;21.66;78.00
46394;BME280;32099;53.588;10.176;2022-08-18T07:12:26;100806.41;;;21.77;78.03
46394;BME280;32099;53.588;10.176;2022-08-18T07:14:54;100808.50;;;21.86;77.10
46394;BME280;32099;53.588;10.176;2022-08-18T07:17:21;100803.59;;;21.94;76.43
46394;BME280;32099;53.588;10.176;2022-08-18T07:19:54;100810.91;;;22.00;77.05
46394;BME280;32099;53.588;10.176;2022-08-18T07:22:19;100813.78;;;22.10;76.05
46394;BME280;32099;53.588;10.176;2022-08-18T07:24:45;100814.75;;;22.21;76.66
46394;BME280;32099;53.588;10.176;2022-08-18T07:27:12;100817.38;;;22.33;76.13
46394;BME280;32099;53.588;10.176;2022-08-18T07:29:39;100813.25;;;22.35;77.18
46394;BME280;32099;53.588;10.176;2022-08-18T07:32:08;100819.53;;;22.26;76.08
46394;BME280;32099;53.588;10.176;2022-08-18T07:34:39;100821.78;;;22.29;75.88
46394;BME280;32099;53.588;10.176;2022-08-18T07:37:18;100817.66;;;22.31;76.07
46394;BME280;32099;53.588;10.176;2022-08-18T07:42:27;100833.53;;;22.14;76.41
46394;BME280;32099;53.588;10.176;2022-08-18T07:45:31;100835.34;;;22.03;76.93
46394;BME280;32099;53.588;10.176;2022-08-18T07:50:16;100838.13;;;21.81;76.97
46394;BME280;32099;53.588;10.176;2022-08-18T07:52:49;100837.97;;;21.70;77.78
46394;BME280;32099;53.588;10.176;2022-08-18T08:00:35;100847.56;;;21.46;77.98
46394;BME280;32099;53.588;10.176;2022-08-18T08:03:25;100856.38;;;21.42;78.04
46394;BME280;32099;53.588;10.176;2022-08-18T08:05:55;100865.78;;;21.41;78.63
46394;BME280;32099;53.588;10.176;2022-08-18T08:08:43;100866.56;;;21.37;78.21
46394;BME280;32099;53.588;10.176;2022-08-18T08:11:15;100865.22;;;21.39;78.25
46394;BME280;32099;53.588;10.176;2022-08-18T08:13:46;100865.78;;;21.41;77.74
46394;BME280;32099;53.588;10.176;2022-08-18T08:16:18;100865.63;;;21.48;78.30
46394;BME280;32099;53.588;10.176;2022-08-18T08:21:15;100867.56;;;21.48;77.19
46394;BME280;32099;53.588;10.176;2022-08-18T08:24:00;100872.84;;;21.49;77.39
46394;BME280;32099;53.588;10.176;2022-08-18T08:31:52;100871.44;;;21.64;77.20
46394;BME280;32099;53.588;10.176;2022-08-18T08:37:03;100866.53;;;21.54;77.43
46394;BME280;32099;53.588;10.176;2022-08-18T08:39:37;100886.72;;;21.49;77.91
46394;BME280;32099;53.588;10.176;2022-08-18T08:42:08;100875.63;;;21.49;77.17
46394;BME280;32099;53.588;10.176;2022-08-18T08:44:58;100867.56;;;21.48;77.08
46394;BME280;32099;53.588;10.176;2022-08-18T08:47:24;100873.94;;;21.48;77.76
46394;BME280;32099;53.588;10.176;2022-08-18T08:49:52;100870.94;;;21.50;77.27
46394;BME280;32099;53.588;10.176;2022-08-18T08:52:22;100869.00;;;21.50;77.71
46394;BME280;32099;53.588;10.176;2022-08-18T08:57:13;100868.56;;;21.58;77.82
46394;BME280;32099;53.588;10.176;2022-08-18T08:59:40;100860.84;;;21.61;77.44
46394;BME280;32099;53.588;10.176;2022-08-18T09:04:52;100878.50;;;21.71;76.77
46394;BME280;32099;53.588;10.176;2022-08-18T09:23:08;100879.56;;;22.10;75.54
46394;BME280;32099;53.588;10.176;2022-08-18T09:28:14;100872.50;;;22.19;74.94
46394;BME280;32099;53.588;10.176;2022-08-18T09:36:22;100878.53;;;22.38;74.40
46394;BME280;32099;53.588;10.176;2022-08-18T09:38:59;100886.16;;;22.43;73.60
46394;BME280;32099;53.588;10.176;2022-08-18T09:41:51;100870.69;;;22.52;74.08
46394;BME280;32099;53.588;10.176;2022-08-18T09:47:02;100880.25;;;22.89;72.39
46394;BME280;32099;53.588;10.176;2022-08-18T09:51:55;100874.75;;;23.21;71.57
46394;BME280;32099;53.588;10.176;2022-08-18T09:54:24;100867.06;;;23.34;71.78
46394;BME280;32099;53.588;10.176;2022-08-18T10:04:35;100865.03;;;23.62;70.63
46394;BME280;32099;53.588;10.176;2022-08-18T10:07:14;100873.66;;;23.65;70.74
46394;BME280;32099;53.588;10.176;2022-08-18T10:12:14;100872.56;;;23.66;70.22
46394;BME280;32099;53.588;10.176;2022-08-18T10:25:34;100871.75;;;24.09;69.66
46394;BME280;32099;53.588;10.176;2022-08-18T10:28:01;100864.78;;;24.16;69.81
46394;BME280;32099;53.588;10.176;2022-08-18T10:32:58;100869.03;;;24.34;69.09
46394;BME280;32099;53.588;10.176;2022-08-18T10:38:12;100880.00;;;24.57;69.08
46394;BME280;32099;53.588;10.176;2022-08-18T10:40:39;100876.72;;;24.70;68.04
46394;BME280;32099;53.588;10.176;2022-08-18T10:43:08;100871.16;;;24.80;66.61
46394;BME280;32099;53.588;10.176;2022-08-18T10:45:34;100869.50;;;24.90;67.35
46394;BME280;32099;53.588;10.176;2022-08-18T10:50:29;100879.00;;;25.15;67.50
46394;BME280;32099;53.588;10.176;2022-08-18T10:53:02;100874.53;;;25.34;66.29
46394;BME280;32099;53.588;10.176;2022-08-18T10:55:41;100878.47;;;25.44;65.93
46394;BME280;32099;53.588;10.176;2022-08-18T10:58:21;100879.88;;;25.46;66.10
46394;BME280;32099;53.588;10.176;2022-08-18T11:01:03;100887.66;;;25.49;66.02
46394;BME280;32099;53.588;10.176;2022-08-18T11:03:36;100885.16;;;25.42;66.34
46394;BME280;32099;53.588;10.176;2022-08-18T11:06:05;100882.38;;;25.42;65.95
46394;BME280;32099;53.588;10.176;2022-08-18T11:08:34;100875.41;;;25.55;66.99
46394;BME280;32099;53.588;10.176;2022-08-18T11:11:05;100878.16;;;25.71;65.14
46394;BME280;32099;53.588;10.176;2022-08-18T11:13:40;100878.72;;;25.68;64.69
46394;BME280;32099;53.588;10.176;2022-08-18T11:16:31;100881.50;;;25.63;64.37
46394;BME280;32099;53.588;10.176;2022-08-18T11:19:08;100887.94;;;25.63;64.46
46394;BME280;32099;53.588;10.176;2022-08-18T11:21:42;100876.50;;;25.65;64.19
46394;BME280;32099;53.588;10.176;2022-08-18T11:24:09;100887.66;;;25.70;64.37
46394;BME280;32099;53.588;10.176;2022-08-18T11:26:40;100884.28;;;25.78;64.55
46394;BME280;32099;53.588;10.176;2022-08-18T11:29:22;100878.66;;;25.83;63.18
46394;BME280;32099;53.588;10.176;2022-08-18T11:31:52;100875.31;;;25.86;65.14
46394;BME280;32099;53.588;10.176;2022-08-18T11:34:21;100874.16;;;26.03;64.26
46394;BME280;32099;53.588;10.176;2022-08-18T11:37:02;100879.19;;;26.16;64.14
46394;BME280;32099;53.588;10.176;2022-08-18T11:39:28;100870.16;;;26.30;63.60
46394;BME280;32099;53.588;10.176;2022-08-18T11:41:54;100876.31;;;26.37;63.32
46394;BME280;32099;53.588;10.176;2022-08-18T11:44:21;100873.75;;;26.41;63.61
46394;BME280;32099;53.588;10.176;2022-08-18T11:46:48;100878.22;;;26.42;63.48
46394;BME280;32099;53.588;10.176;2022-08-18T11:49:20;100872.06;;;26.45;62.84
46394;BME280;32099;53.588;10.176;2022-08-18T11:51:57;100877.06;;;26.48;62.48
46394;BME280;32099;53.588;10.176;2022-08-18T11:54:30;100871.41;;;26.63;62.31
46394;BME280;32099;53.588;10.176;2022-08-18T11:57:26;100868.78;;;26.77;61.94
46394;BME280;32099;53.588;10.176;2022-08-18T11:59:42;100869.94;;;26.82;61.42
46394;BME280;32099;53.588;10.176;2022-08-18T12:02:07;100868.50;;;26.84;61.96
46394;BME280;32099;53.588;10.176;2022-08-18T12:04:38;100867.41;;;26.75;61.64
46394;BME280;32099;53.588;10.176;2022-08-18T12:07:09;100872.22;;;26.64;62.08
46394;BME280;32099;53.588;10.176;2022-08-18T12:12:04;100860.22;;;26.63;62.18
46394;BME280;32099;53.588;10.176;2022-08-18T12:14:32;100847.84;;;26.70;61.84
46394;BME280;32099;53.588;10.176;2022-08-18T12:16:58;100850.13;;;26.68;61.02
46394;BME280;32099;53.588;10.176;2022-08-18T12:19:24;100848.72;;;26.65;60.87
46394;BME280;32099;53.588;10.176;2022-08-18T12:21:56;100846.22;;;26.69;62.08
46394;BME280;32099;53.588;10.176;2022-08-18T12:24:23;100849.22;;;26.83;61.23
46394;BME280;32099;53.588;10.176;2022-08-18T12:26:49;100853.38;;;26.90;61.29
46394;BME280;32099;53.588;10.176;2022-08-18T12:29:15;100856.69;;;26.92;61.27
46394;BME280;32099;53.588;10.176;2022-08-18T12:31:42;100846.66;;;26.86;60.18
46394;BME280;32099;53.588;10.176;2022-08-18T12:34:07;100845.56;;;26.82;60.61
46394;BME280;32099;53.588;10.176;2022-08-18T12:36:32;100841.63;;;26.88;61.67
46394;BME280;32099;53.588;10.176;2022-08-18T12:38:58;100841.00;;;26.97;60.64
46394;BME280;32099;53.588;10.176;2022-08-18T12:41:24;100830.94;;;26.95;61.15
46394;BME280;32099;53.588;10.176;2022-08-18T12:43:49;100830.34;;;26.99;59.56
46394;BME280;32099;53.588;10.176;2022-08-18T12:46:14;100828.66;;;27.03;60.27
46394;BME280;32099;53.588;10.176;2022-08-18T12:48:39;100833.88;;;27.09;60.14
46394;BME280;32099;53.588;10.176;2022-08-18T12:51:05;100826.25;;;27.20;59.26
46394;BME280;32099;53.588;10.176;2022-08-18T12:53:30;100828.22;;;27.20;60.00
46394;BME280;32099;53.588;10.176;2022-08-18T12:55:55;100817.41;;;27.08;59.94
46394;BME280;32099;53.588;10.176;2022-08-18T12:58:21;100821.31;;;27.07;59.99
46394;BME280;32099;53.588;10.176;2022-08-18T13:00:46;100817.56;;;27.22;59.04
46394;BME280;32099;53.588;10.176;2022-08-18T13:03:12;100812.34;;;27.39;59.51
46394;BME280;32099;53.588;10.176;2022-08-18T13:05:37;100810.69;;;27.68;59.89
46394;BME280;32099;53.588;10.176;2022-08-18T13:08:03;100816.94;;;28.08;59.99
46394;BME280;32099;53.588;10.176;2022-08-18T13:10:29;100814.25;;;28.60;58.59
46394;BME280;32099;53.588;10.176;2022-08-18T13:12:54;100826.09;;;28.96;58.00
46394;BME280;32099;53.588;10.176;2022-08-18T13:15:19;100817.38;;;28.97;58.78
46394;BME280;32099;53.588;10.176;2022-08-18T13:17:44;100827.59;;;28.88;57.90
46394;BME280;32099;53.588;10.176;2022-08-18T13:20:11;100825.81;;;28.78;58.47
46394;BME280;32099;53.588;10.176;2022-08-18T13:22:37;100828.44;;;28.69;57.05
46394;BME280;32099;53.588;10.176;2022-08-18T13:25:04;100821.91;;;28.55;57.24
46394;BME280;32099;53.588;10.176;2022-08-18T13:27:31;100825.84;;;28.54;57.83
46394;BME280;32099;53.588;10.176;2022-08-18T13:29:56;100827.63;;;28.50;57.72
46394;BME280;32099;53.588;10.176;2022-08-18T13:32:21;100825.44;;;29.65;54.60
46394;BME280;32099;53.588;10.176;2022-08-18T13:34:47;100824.34;;;29.94;53.53
46394;BME280;32099;53.588;10.176;2022-08-18T13:37:12;100817.97;;;29.88;54.49
46394;BME280;32099;53.588;10.176;2022-08-18T13:39:39;100805.59;;;29.89;54.55
46394;BME280;32099;53.588;10.176;2022-08-18T13:42:04;100810.66;;;30.15;54.70
46394;BME280;32099;53.588;10.176;2022-08-18T13:44:30;100804.72;;;30.67;54.26
46394;BME280;32099;53.588;10.176;2022-08-18T13:46:56;100797.94;;;31.36;52.11
46394;BME280;32099;53.588;10.176;2022-08-18T13:49:22;100786.34;;;32.27;50.13
46394;BME280;32099;53.588;10.176;2022-08-18T13:51:48;100789.72;;;34.16;44.98
46394;BME280;32099;53.588;10.176;2022-08-18T13:56:45;100801.34;;;38.10;36.94
46394;BME280;32099;53.588;10.176;2022-08-18T13:59:10;100801.91;;;38.71;34.34
46394;BME280;32099;53.588;10.176;2022-08-18T14:01:36;100791.78;;;38.34;35.82
46394;BME280;32099;53.588;10.176;2022-08-18T14:04:01;100793.03;;;36.64;38.69
46394;BME280;32099;53.588;10.176;2022-08-18T14:06:27;100794.34;;;34.84;40.68
46394;BME280;32099;53.588;10.176;2022-08-18T14:08:52;100791.28;;;33.36;43.46
46394;BME280;32099;53.588;10.176;2022-08-18T14:11:18;100793.84;;;32.32;46.43
46394;BME280;32099;53.588;10.176;2022-08-18T14:13:44;100805.09;;;31.43;48.09
46394;BME280;32099;53.588;10.176;2022-08-18T14:16:09;100798.94;;;30.86;49.80
46394;BME280;32099;53.588;10.176;2022-08-18T14:18:35;100793.56;;;30.39;50.30
46394;BME280;32099;53.588;10.176;2022-08-18T14:21:00;100792.47;;;30.12;50.97
46394;BME280;32099;53.588;10.176;2022-08-18T14:23:44;100786.34;;;29.96;52.95
46394;BME280;32099;53.588;10.176;2022-08-18T14:26:29;100773.09;;;29.83;53.32
46394;BME280;32099;53.588;10.176;2022-08-18T14:29:13;100776.44;;;29.71;52.99
46394;BME280;32099;53.588;10.176;2022-08-18T14:31:38;100778.75;;;29.55;52.84
46394;BME280;32099;53.588;10.176;2022-08-18T14:34:03;100780.50;;;29.37;53.04
46394;BME280;32099;53.588;10.176;2022-08-18T14:36:28;100783.88;;;29.20;53.85
46394;BME280;32099;53.588;10.176;2022-08-18T14:38:53;100787.16;;;29.08;53.71
46394;BME280;32099;53.588;10.176;2022-08-18T14:41:19;100788.78;;;28.95;54.67
46394;BME280;32099;53.588;10.176;2022-08-18T14:43:44;100798.78;;;28.82;53.50